Time,TemperatureF,DewpointF,PressureIn,WindDirection,WindDirectionDegrees,WindSpeedMPH,WindSpeedGustMPH,Humidity,HourlyPrecipIn,Conditions,Clouds,dailyrainin,SoftwareType,DateUTC
2013-08-29 00:06:00,60.7,60.0,29.96,ENE,57,0.0,0.0,98,0.00,,,0.00,weatherlink.com 1.10,2013-08-29 07:06:00,
2013-08-29 00:21:00,60.9,60.0,29.96,ENE,57,0.0,0.0,98,0.00,,,0.00,weatherlink.com 1.10,2013-08-29 07:21:00,
2013-08-29 00:36:00,60.9,60.0,29.96,ENE,57,0.0,0.0,98,0.00,,,0.00,weatherlink.com 1.10,2013-08-29 07:36:00,
2013-08-29 00:51:00,61.0,60.0,29.97,SW,230,0.0,0.0,97,0.00,,,0.00,weatherlink.com 1.10,2013-08-29 07:51:00,
2013-08-29 01:06:00,60.2,59.0,29.97,SSW,192,0.0,0.0,97,0.00,,,0.00,weatherlink.com 1.10,2013-08-29 08:06:00,
2013-08-29 01:21:00,60.0,59.0,29.97,SSW,192,0.0,0.0,97,0.00,,,0.00,weatherlink.com 1.10,2013-08-29 08:21:00,
2013-08-29 01:36:00,60.2,60.0,29.97,SSW,192,0.0,0.0,98,0.00,,,0.00,weatherlink.com 1.10,2013-08-29 08:36:00,
2013-08-29 01:51:00,60.0,59.0,29.97,SSW,192,0.0,0.0,97,0.00,,,0.00,weatherlink.com 1.10,2013-08-29 08:51:00,
2013-08-29 02:06:00,59.8,59.0,29.97,SSW,192,0.0,0.0,97,0.00,,,0.00,weatherlink.com 1.10,2013-08-29 09:06:00,
2013-08-29 02:21:00,59.7,59.0,29.97,SSW,192,0.0,0.0,98,0.00,,,0.00,weatherlink.com 1.10,2013-08-29 09:21:00,
2013-08-29 02:36:00,59.8,59.0,29.97,SSW,192,0.0,0.0,98,0.00,,,0.00,weatherlink.com 1.10,2013-08-29 09:36:00,
2013-08-29 02:51:00,59.8,59.0,29.97,SSW,192,0.0,0.0,98,0.01,,,0.01,weatherlink.com 1.10,2013-08-29 09:51:00,
2013-08-29 03:06:00,59.9,59.0,29.97,SSW,192,0.0,0.0,98,0.01,,,0.01,weatherlink.com 1.10,2013-08-29 10:06:00,
2013-08-29 03:21:00,60.0,60.0,29.97,SSW,192,0.0,0.0,98,0.01,,,0.01,weatherlink.com 1.10,2013-08-29 10:21:00,
2013-08-29 03:36:00,59.9,59.0,29.98,SSW,192,0.0,0.0,98,0.01,,,0.01,weatherlink.com 1.10,2013-08-29 10:36:00,
2013-08-29 03:51:00,59.7,59.0,29.98,NNE,16,0.0,0.0,98,0.00,,,0.01,weatherlink.com 1.10,2013-08-29 10:51:00,
2013-08-29 04:06:00,59.8,59.0,29.98,NNE,28,0.0,0.0,98,0.00,,,0.01,weatherlink.com 1.10,2013-08-29 11:06:00,
2013-08-29 04:21:00,59.8,59.0,29.98,North,355,0.0,2.0,98,0.00,,,0.01,weatherlink.com 1.10,2013-08-29 11:21:00,
2013-08-29 04:36:00,59.8,59.0,29.98,NNE,30,0.0,1.0,98,0.00,,,0.01,weatherlink.com 1.10,2013-08-29 11:36:00,
2013-08-29 04:51:00,59.8,59.0,29.99,NNE,30,0.0,1.0,98,0.00,,,0.01,weatherlink.com 1.10,2013-08-29 11:51:00,
2013-08-29 05:06:00,59.8,59.0,29.98,NNW,348,0.0,2.0,98,0.00,,,0.01,weatherlink.com 1.10,2013-08-29 12:06:00,
2013-08-29 05:21:00,59.6,59.0,29.98,NNE,25,0.0,3.0,98,0.00,,,0.01,weatherlink.com 1.10,2013-08-29 12:21:00,
2013-08-29 05:36:00,59.5,59.0,29.99,NNE,24,0.0,2.0,98,0.00,,,0.01,weatherlink.com 1.10,2013-08-29 12:36:00,
2013-08-29 05:51:00,59.5,59.0,30.00,NNE,27,0.0,2.0,98,0.00,,,0.01,weatherlink.com 1.10,2013-08-29 12:51:00,
2013-08-29 06:06:00,59.5,59.0,30.00,NNE,13,0.0,4.0,98,0.00,,,0.01,weatherlink.com 1.10,2013-08-29 13:06:00,
2013-08-29 06:21:00,59.5,59.0,30.01,NNE,27,0.0,4.0,98,0.00,,,0.01,weatherlink.com 1.10,2013-08-29 13:21:00,
2013-08-29 06:36:00,59.5,59.0,30.02,NNE,16,0.0,3.0,98,0.00,,,0.01,weatherlink.com 1.10,2013-08-29 13:36:00,
2013-08-29 06:51:00,59.5,59.0,30.02,NNE,17,0.0,2.0,98,0.00,,,0.01,weatherlink.com 1.10,2013-08-29 13:51:00,
2013-08-29 07:06:00,59.5,59.0,30.03,NNE,24,0.0,0.0,98,0.00,,,0.01,weatherlink.com 1.10,2013-08-29 14:06:00,
2013-08-29 07:21:00,59.5,59.0,30.03,NNE,22,0.0,2.0,98,0.00,,,0.01,weatherlink.com 1.10,2013-08-29 14:21:00,
2013-08-29 07:36:00,59.7,59.0,30.04,NNE,22,0.0,0.0,98,0.00,,,0.01,weatherlink.com 1.10,2013-08-29 14:36:00,
2013-08-29 07:51:00,60.2,60.0,30.04,NNE,22,0.0,0.0,98,0.00,,,0.01,weatherlink.com 1.10,2013-08-29 14:51:00,
2013-08-29 08:06:00,60.7,60.0,30.05,NNE,25,0.0,0.0,98,0.00,,,0.01,weatherlink.com 1.10,2013-08-29 15:06:00,
2013-08-29 08:21:00,61.2,61.0,30.05,NNE,15,0.0,0.0,98,0.00,,,0.01,weatherlink.com 1.10,2013-08-29 15:21:00,
2013-08-29 08:36:00,61.3,61.0,30.05,NNE,30,0.0,0.0,98,0.00,,,0.01,weatherlink.com 1.10,2013-08-29 15:36:00,
2013-08-29 08:51:00,62.3,62.0,30.05,NNE,30,0.0,0.0,98,0.00,,,0.01,weatherlink.com 1.10,2013-08-29 15:51:00,
2013-08-29 09:06:00,62.3,62.0,30.05,SW,228,0.0,0.0,97,0.00,,,0.01,weatherlink.com 1.10,2013-08-29 16:06:00,
2013-08-29 09:21:00,61.4,61.0,30.06,SSW,206,0.0,0.0,97,0.00,,,0.01,weatherlink.com 1.10,2013-08-29 16:21:00,
2013-08-29 09:36:00,60.8,60.0,30.07,SSW,196,0.0,0.0,97,0.00,,,0.01,weatherlink.com 1.10,2013-08-29 16:36:00,
2013-08-29 09:51:00,61.2,61.0,30.07,SW,224,0.0,0.0,98,0.00,,,0.01,weatherlink.com 1.10,2013-08-29 16:51:00,
2013-08-29 10:06:00,61.4,61.0,30.08,SSW,209,0.0,4.0,98,0.00,,,0.01,weatherlink.com 1.10,2013-08-29 17:06:00,
2013-08-29 10:22:00,61.1,60.0,30.08,SSW,200,0.0,4.0,97,0.00,,,0.01,weatherlink.com 1.10,2013-08-29 17:22:00,
2013-08-29 10:37:00,61.7,61.0,30.09,SW,217,3.0,4.0,98,0.00,,,0.01,weatherlink.com 1.10,2013-08-29 17:37:00,
2013-08-29 10:52:00,61.7,61.0,30.08,SSW,208,4.0,5.0,98,0.00,,,0.01,weatherlink.com 1.10,2013-08-29 17:52:00,
2013-08-29 11:07:00,62.3,62.0,30.09,SW,216,4.0,5.0,97,0.00,,,0.01,weatherlink.com 1.10,2013-08-29 18:07:00,
2013-08-29 11:22:00,62.9,62.0,30.09,SSW,196,3.0,6.0,95,0.00,,,0.01,weatherlink.com 1.10,2013-08-29 18:22:00,
2013-08-29 11:37:00,63.3,62.0,30.09,SSW,208,2.0,5.0,94,0.00,,,0.01,weatherlink.com 1.10,2013-08-29 18:37:00,
2013-08-29 11:52:00,64.4,62.0,30.09,SSW,198,4.0,5.0,92,0.00,,,0.01,weatherlink.com 1.10,2013-08-29 18:52:00,
2013-08-29 12:07:00,64.6,62.0,30.09,South,183,3.0,6.0,92,0.00,,,0.01,weatherlink.com 1.10,2013-08-29 19:07:00,
2013-08-29 12:22:00,65.2,63.0,30.09,SSW,194,4.0,6.0,91,0.00,,,0.01,weatherlink.com 1.10,2013-08-29 19:22:00,
2013-08-29 12:37:00,63.9,61.0,30.09,SW,216,4.0,6.0,89,0.00,,,0.01,weatherlink.com 1.10,2013-08-29 19:37:00,
2013-08-29 12:52:00,64.9,62.0,30.09,SSW,197,4.0,6.0,89,0.00,,,0.01,weatherlink.com 1.10,2013-08-29 19:52:00,
2013-08-29 13:07:00,64.4,61.0,30.08,SSW,213,4.0,7.0,89,0.00,,,0.01,weatherlink.com 1.10,2013-08-29 20:07:00,
2013-08-29 13:22:00,64.1,61.0,30.08,SSW,205,5.0,6.0,89,0.00,,,0.01,weatherlink.com 1.10,2013-08-29 20:22:00,
2013-08-29 13:37:00,64.3,61.0,30.08,SSW,200,5.0,7.0,89,0.00,,,0.01,weatherlink.com 1.10,2013-08-29 20:37:00,
2013-08-29 13:52:00,64.2,61.0,30.09,SSW,205,4.0,6.0,89,0.00,,,0.01,weatherlink.com 1.10,2013-08-29 20:52:00,
2013-08-29 14:07:00,64.4,62.0,30.09,SSW,202,3.0,7.0,90,0.00,,,0.01,weatherlink.com 1.10,2013-08-29 21:07:00,
2013-08-29 14:22:00,65.8,62.0,30.09,SSW,205,6.0,7.0,88,0.00,,,0.01,weatherlink.com 1.10,2013-08-29 21:22:00,
2013-08-29 14:37:00,67.1,63.0,30.09,South,188,4.0,8.0,86,0.00,,,0.01,weatherlink.com 1.10,2013-08-29 21:37:00,
2013-08-29 14:52:00,66.5,63.0,30.08,SSW,196,4.0,9.0,87,0.00,,,0.01,weatherlink.com 1.10,2013-08-29 21:52:00,
2013-08-29 15:07:00,67.0,62.0,30.08,SSW,197,5.0,9.0,85,0.00,,,0.01,weatherlink.com 1.10,2013-08-29 22:07:00,
2013-08-29 15:22:00,64.8,62.0,30.08,SW,228,8.0,9.0,90,0.00,,,0.01,weatherlink.com 1.10,2013-08-29 22:22:00,
2013-08-29 15:37:00,64.3,62.0,30.07,South,188,4.0,8.0,91,0.00,,,0.01,weatherlink.com 1.10,2013-08-29 22:37:00,
2013-08-29 15:52:00,63.2,61.0,30.07,SSW,192,2.0,7.0,93,0.00,,,0.01,weatherlink.com 1.10,2013-08-29 22:52:00,
2013-08-29 16:07:00,63.2,62.0,30.07,South,188,5.0,7.0,94,0.00,,,0.01,weatherlink.com 1.10,2013-08-29 23:07:00,
2013-08-29 16:22:00,63.4,62.0,30.07,South,186,5.0,8.0,94,0.00,,,0.01,weatherlink.com 1.10,2013-08-29 23:22:00,
2013-08-29 16:37:00,63.3,62.0,30.07,SW,221,6.0,7.0,94,0.00,,,0.01,weatherlink.com 1.10,2013-08-29 23:37:00,
2013-08-29 16:52:00,63.4,62.0,30.07,SSW,209,5.0,7.0,94,0.00,,,0.01,weatherlink.com 1.10,2013-08-29 23:52:00,
2013-08-29 17:07:00,63.1,61.0,30.06,SSW,207,3.0,7.0,94,0.00,,,0.01,weatherlink.com 1.10,2013-08-30 00:07:00,
2013-08-29 17:22:00,64.0,62.0,30.06,SW,215,5.0,6.0,93,0.00,,,0.01,weatherlink.com 1.10,2013-08-30 00:22:00,
2013-08-29 17:37:00,64.3,62.0,30.06,SSE,167,4.0,8.0,91,0.00,,,0.01,weatherlink.com 1.10,2013-08-30 00:37:00,
2013-08-29 17:52:00,64.9,62.0,30.05,SW,222,3.0,6.0,89,0.00,,,0.01,weatherlink.com 1.10,2013-08-30 00:52:00,
2013-08-29 18:07:00,64.7,62.0,30.05,SW,214,3.0,7.0,90,0.00,,,0.01,weatherlink.com 1.10,2013-08-30 01:07:00,
2013-08-29 18:22:00,65.0,62.0,30.05,SSW,206,4.0,6.0,89,0.00,,,0.01,weatherlink.com 1.10,2013-08-30 01:22:00,
2013-08-29 18:37:00,66.0,62.0,30.04,South,189,4.0,6.0,88,0.00,,,0.01,weatherlink.com 1.10,2013-08-30 01:37:00,
2013-08-29 18:52:00,66.4,63.0,30.04,SSW,200,3.0,6.0,88,0.00,,,0.01,weatherlink.com 1.10,2013-08-30 01:52:00,
2013-08-29 19:07:00,66.1,63.0,30.04,SSW,208,2.0,6.0,88,0.00,,,0.01,weatherlink.com 1.10,2013-08-30 02:07:00,
2013-08-29 19:22:00,65.2,62.0,30.04,SSW,199,2.0,4.0,89,0.00,,,0.01,weatherlink.com 1.10,2013-08-30 02:22:00,
2013-08-29 19:37:00,64.7,62.0,30.04,ESE,105,0.0,7.0,90,0.00,,,0.01,weatherlink.com 1.10,2013-08-30 02:37:00,
2013-08-29 19:52:00,64.1,62.0,30.04,ESE,105,0.0,0.0,91,0.00,,,0.01,weatherlink.com 1.10,2013-08-30 02:52:00,
2013-08-29 20:07:00,63.6,61.0,30.04,East,88,0.0,0.0,92,0.00,,,0.01,weatherlink.com 1.10,2013-08-30 03:07:00,
2013-08-29 20:22:00,63.2,61.0,30.04,East,88,0.0,0.0,93,0.00,,,0.01,weatherlink.com 1.10,2013-08-30 03:22:00,
2013-08-29 20:37:00,63.0,61.0,30.04,East,88,0.0,0.0,93,0.00,,,0.01,weatherlink.com 1.10,2013-08-30 03:37:00,
2013-08-29 20:52:00,62.9,61.0,30.04,ENE,74,0.0,0.0,94,0.00,,,0.01,weatherlink.com 1.10,2013-08-30 03:52:00,
2013-08-29 21:07:00,62.7,61.0,30.05,ENE,74,0.0,0.0,94,0.00,,,0.01,weatherlink.com 1.10,2013-08-30 04:07:00,
2013-08-29 21:22:00,62.7,61.0,30.05,NE,56,0.0,1.0,95,0.00,,,0.01,weatherlink.com 1.10,2013-08-30 04:22:00,
2013-08-29 21:37:00,63.1,62.0,30.05,NE,34,0.0,3.0,95,0.00,,,0.01,weatherlink.com 1.10,2013-08-30 04:37:00,
2013-08-29 21:52:00,62.9,62.0,30.05,NE,45,0.0,3.0,95,0.00,,,0.01,weatherlink.com 1.10,2013-08-30 04:52:00,
2013-08-29 22:07:00,62.6,61.0,30.05,NNE,27,0.0,1.0,95,0.00,,,0.01,weatherlink.com 1.10,2013-08-30 05:07:00,
2013-08-29 22:22:00,62.5,61.0,30.05,NNE,33,0.0,0.0,95,0.00,,,0.01,weatherlink.com 1.10,2013-08-30 05:22:00,
2013-08-29 22:37:00,62.5,61.0,30.05,NNE,32,0.0,0.0,95,0.00,,,0.01,weatherlink.com 1.10,2013-08-30 05:37:00,
2013-08-29 22:52:00,62.4,61.0,30.05,NE,36,0.0,0.0,96,0.00,,,0.01,weatherlink.com 1.10,2013-08-30 05:52:00,
2013-08-29 23:07:00,62.3,61.0,30.05,NE,34,0.0,3.0,96,0.00,,,0.01,weatherlink.com 1.10,2013-08-30 06:07:00,
2013-08-29 23:22:00,62.2,61.0,30.05,NNE,25,0.0,2.0,95,0.00,,,0.01,weatherlink.com 1.10,2013-08-30 06:22:00,
2013-08-29 23:37:00,62.0,61.0,30.06,NNE,13,0.0,3.0,95,0.00,,,0.01,weatherlink.com 1.10,2013-08-30 06:37:00,
2013-08-29 23:52:00,61.9,61.0,30.05,NNE,13,0.0,0.0,96,0.00,,,0.01,weatherlink.com 1.10,2013-08-30 06:52:00,